NetherlandsFixed distance
Centurion Schiedam
22–23 May2010
Distance
50mi
Finishers
5246 men6 women
Winning time
8:53:00h
Median pace
6.62km/h
Pace distribution
52 finishers · 5.04–9.06 km/h · mean 6.63
Every finisher ran the same 50 mi course, so these paces are directly comparable.
Histogram of finisher pace. 52 finishers ranged from 5.04 to 9.06 kilometres per hour, with a mean of 6.63 and a median of 6.62. The busiest band is 5.5 to 6.0 kilometres per hour, with 10 finishers.
Results
Ranks 1–50 of 52
| Rank | Runner | Time | Pace | Cat. | Placing |
|---|---|---|---|---|---|
| 1 | Ilford AC | 8:53:00h | 9.06 | M55 | 1st M · 1st M55 |
| 2 | RWV | 9:49:50h | 8.19 | M50 | 2nd M · 1st M50 |
| 3 | RWV | 9:58:11h | 8.07 | M23 | 3rd M · 1st M23 |
| 4 | Knblo | 10:14:06h | 7.86 | M35 | 4th M · 1st M35 |
| 5 | *Stroboeren | 10:21:24h | 7.77 | M45 | 5th M · 1st M45 |
| 6 | RWV | 10:25:58h | 7.71 | W50 | 1st F · 1st W50 |
| 7 | *Haaglanden | 10:32:40h | 7.63 | M50 | 6th M · 2nd M50 |
| 8 | *St Jansstap | 10:32:43h | 7.63 | M60 | 7th M · 1st M60 |
| 9 | 10:42:41h | 7.51 | M50 | 8th M · 3rd M50 | |
| 10 | *Noorderk. | 10:53:24h | 7.39 | M55 | 9th M · 2nd M55 |
| 11 | RWV | 10:54:29h | 7.38 | M45 | 10th M · 2nd M45 |
| 12 | Olat | 11:13:21h | 7.17 | M40 | 11th M · 1st M40 |
| 13 | 11:17:32h | 7.13 | M65 | 12th M · 1st M65 | |
| 14 | RWV | 11:17:32h | 7.13 | M45 | 12th M · 3rd M45 |
| 15 | *Haaglanden | 11:25:45h | 7.04 | M50 | 14th M · 4th M50 |
| 16 | Olat | 11:25:47h | 7.04 | M70 | 15th M · 1st M70 |
| 17 | Flal | 11:27:38h | 7.02 | M60 | 16th M · 2nd M60 |
| 18 | Flal | 11:27:38h | 7.02 | W50 | 2nd F · 2nd W50 |
| 19 | Olat | 11:29:38h | 7.00 | M55 | 17th M · 3rd M55 |
| 20 | SV de LAT | 11:34:43h | 6.95 | W55 | 3rd F · 1st W55 |
| 21 | 11:45:25h | 6.84 | M35 | 18th M · 2nd M35 | |
| 22 | Olat | 11:45:25h | 6.84 | M55 | 18th M · 4th M55 |
| 23 | 11:48:45h | 6.81 | M50 | 20th M · 5th M50 | |
| 24 | NWB | 11:49:43h | 6.80 | M50 | 21st M · 6th M50 |
| 25 | *GR. Kruisdr | 11:53:10h | 6.77 | M40 | 22nd M · 2nd M40 |
| 26 | RWV | 11:53:43h | 6.76 | M60 | 23rd M · 3rd M60 |
| 27 | RWV | 12:09:27h | 6.62 | M60 | 24th M · 4th M60 |
| 28 | WSV ZH | 12:14:25h | 6.57 | M50 | 25th M · 7th M50 |
| 29 | RWV | 12:43:33h | 6.32 | M60 | 26th M · 5th M60 |
| 30 | LAT | 12:43:48h | 6.32 | M35 | 27th M · 3rd M35 |
| 31 | *Gelderland | 12:43:48h | 6.32 | M60 | 27th M · 6th M60 |
| 32 | WS'78 | 12:50:36h | 6.26 | M55 | 29th M · 5th M55 |
| 33 | VTM | 12:53:53h | 6.24 | M50 | 30th M · 8th M50 |
| 34 | RWV | 12:53:53h | 6.24 | M40 | 30th M · 3rd M40 |
| 35 | RWV | 13:08:21h | 6.12 | M40 | 32nd M · 4th M40 |
| 36 | WS'78 | 13:16:50h | 6.06 | M35 | 33rd M · 4th M35 |
| 37 | 13:18:03h | 6.05 | M45 | 34th M · 4th M45 | |
| 38 | Olat | 13:18:18h | 6.05 | M55 | 35th M · 6th M55 |
| 39 | 13:25:35h | 5.99 | W55 | 4th F · 2nd W55 | |
| 40 | RWV | 13:26:45h | 5.99 | M70 | 36th M · 2nd M70 |
| 41 | 13:43:45h | 5.86 | M55 | 37th M · 7th M55 | |
| 42 | LE Champion | 13:43:45h | 5.86 | M45 | 37th M · 5th M45 |
| 43 | 13:52:52h | 5.80 | M50 | 39th M · 9th M50 | |
| 44 | 13:52:52h | 5.80 | M50 | 39th M · 9th M50 | |
| 45 | Knblo | 13:54:29h | 5.79 | M60 | 41st M · 7th M60 |
| 46 | 14:11:20h | 5.67 | W65 | 5th F · 1st W65 | |
| 47 | 14:14:17h | 5.65 | M40 | 42nd M · 5th M40 | |
| 48 | 14:35:47h | 5.51 | M35 | 43rd M · 5th M35 | |
| 49 | OWB | 14:50:20h | 5.42 | M55 | 44th M · 8th M55 |
| 50 | 14:51:05h | 5.42 | W50 | 6th F · 3rd W50 |
- 1Ilford AC1st M · 1st M55Time8:53:00hPace9.06Cat.M55
- 2RWV2nd M · 1st M50Time9:49:50hPace8.19Cat.M50
- 3RWV3rd M · 1st M23Time9:58:11hPace8.07Cat.M23
- 4Knblo4th M · 1st M35Time10:14:06hPace7.86Cat.M35
- 5*Stroboeren5th M · 1st M45Time10:21:24hPace7.77Cat.M45
- 6RWV1st F · 1st W50Time10:25:58hPace7.71Cat.W50
- 7*Haaglanden6th M · 2nd M50Time10:32:40hPace7.63Cat.M50
- 8*St Jansstap7th M · 1st M60Time10:32:43hPace7.63Cat.M60
- 98th M · 3rd M50Time10:42:41hPace7.51Cat.M50
- 10*Noorderk.9th M · 2nd M55Time10:53:24hPace7.39Cat.M55
- 11RWV10th M · 2nd M45Time10:54:29hPace7.38Cat.M45
- 12Olat11th M · 1st M40Time11:13:21hPace7.17Cat.M40
- 1312th M · 1st M65Time11:17:32hPace7.13Cat.M65
- 14RWV12th M · 3rd M45Time11:17:32hPace7.13Cat.M45
- 15*Haaglanden14th M · 4th M50Time11:25:45hPace7.04Cat.M50
- 16Olat15th M · 1st M70Time11:25:47hPace7.04Cat.M70
- 17Flal16th M · 2nd M60Time11:27:38hPace7.02Cat.M60
- 18Flal2nd F · 2nd W50Time11:27:38hPace7.02Cat.W50
- 19Olat17th M · 3rd M55Time11:29:38hPace7.00Cat.M55
- 20SV de LAT3rd F · 1st W55Time11:34:43hPace6.95Cat.W55
- 2118th M · 2nd M35Time11:45:25hPace6.84Cat.M35
- 22Olat18th M · 4th M55Time11:45:25hPace6.84Cat.M55
- 2320th M · 5th M50Time11:48:45hPace6.81Cat.M50
- 24NWB21st M · 6th M50Time11:49:43hPace6.80Cat.M50
- 25*GR. Kruisdr22nd M · 2nd M40Time11:53:10hPace6.77Cat.M40
- 26RWV23rd M · 3rd M60Time11:53:43hPace6.76Cat.M60
- 27RWV24th M · 4th M60Time12:09:27hPace6.62Cat.M60
- 28WSV ZH25th M · 7th M50Time12:14:25hPace6.57Cat.M50
- 29RWV26th M · 5th M60Time12:43:33hPace6.32Cat.M60
- 30LAT27th M · 3rd M35Time12:43:48hPace6.32Cat.M35
- 31*Gelderland27th M · 6th M60Time12:43:48hPace6.32Cat.M60
- 32WS'7829th M · 5th M55Time12:50:36hPace6.26Cat.M55
- 33VTM30th M · 8th M50Time12:53:53hPace6.24Cat.M50
- 34RWV30th M · 3rd M40Time12:53:53hPace6.24Cat.M40
- 35RWV32nd M · 4th M40Time13:08:21hPace6.12Cat.M40
- 36WS'7833rd M · 4th M35Time13:16:50hPace6.06Cat.M35
- 3734th M · 4th M45Time13:18:03hPace6.05Cat.M45
- 38Olat35th M · 6th M55Time13:18:18hPace6.05Cat.M55
- 394th F · 2nd W55Time13:25:35hPace5.99Cat.W55
- 40RWV36th M · 2nd M70Time13:26:45hPace5.99Cat.M70
- 4137th M · 7th M55Time13:43:45hPace5.86Cat.M55
- 42LE Champion37th M · 5th M45Time13:43:45hPace5.86Cat.M45
- 4339th M · 9th M50Time13:52:52hPace5.80Cat.M50
- 4439th M · 9th M50Time13:52:52hPace5.80Cat.M50
- 45Knblo41st M · 7th M60Time13:54:29hPace5.79Cat.M60
- 465th F · 1st W65Time14:11:20hPace5.67Cat.W65
- 4742nd M · 5th M40Time14:14:17hPace5.65Cat.M40
- 4843rd M · 5th M35Time14:35:47hPace5.51Cat.M35
- 49OWB44th M · 8th M55Time14:50:20hPace5.42Cat.M55
- 506th F · 3rd W50Time14:51:05hPace5.42Cat.W50
Showing ranks 1–50 of 52